Details From SABE - Aeroparque Jorge Newbery
To SASA - Salta
Flight Number -
Tags Generated
Created
Modified
Stats Distance 689 nm / 1,276 km
Max Altitude 0 ft / 0 m
Waypoints 4
Social Downloads 1
Likes 0
Share VATSIM

Download

Looking for another format? Having issues loading an existing format? Contact us
Advertisement - Login to hide

Notes

Generated

Route

SABE SVO SAL02 SASA

ID Type Via Altitude Latitude Longitude Leg Dist Tot Dist Heading (true) Name
O SABE APT - 0 ft / 0 m -34.55416˚ -58.42526˚ - 0 nm - -
SVO NDB - 0 ft / 0 m -31.71167˚ -60.80639˚ 208 nm 208 nm 324° / 326° SAUCE VIEJO NDB
SAL02 FIX - 0 ft / 0 m -24.88459˚ -65.49342˚ 478 nm 687 nm 328° / 330° -
O SASA APT - 0 ft / 0 m -24.85809˚ -65.48957˚ 1 nm 689 nm 8° / 8° -

Altitude Profile

Advertisement - Login to hide

Weather


0- 5 10 15 20 25 30 35+ Temperature / ° C

Clouds and Precipitation
Forecast for 2017-12-15 00:00 UTC. Updated 17 minutes ago

Ground ~20,000 ft ~40,000 ft Winds

SABE

Details ICAO SABE (AEP)
Name Aeroparque Jorge Newbery
Region Argentina
Timezone Unknown (UTC+0.0)
Stats Elevation 17 ft / 5 m (AMSL)
Location -34.559414° -58.415749°
Runways 1
Magnetic Variation 8.981° W

METAR

SABE 141900Z 27010KT 230V300 9999 SCT045 33/11 Q1009

Decode

TAF

TAF SABE 141700Z 1418/1518 26015KT CAVOK TX33/1518Z TN22/1509Z BECMG 1421/1423 20010KT BECMG 1510/1512 08005KT 9999 SCT010 BECMG 1513/1515 04010KT

Decode

Departure Runways

ID Width Length Bearing (true) Bearing (mag) Surface Threshold Offset Overrun Length
13 131 ft / 40 m 6,882 ft / 2,098 m 123.87° 132.85° Concrete 0 ft / 0 m 791 ft / 241 m
31 131 ft / 40 m 6,882 ft / 2,098 m 303.86° 312.84° Concrete 991 ft / 302 m 0 ft / 0 m

SASA

Details ICAO SASA (SLA)
Name SALTA
Region Argentina
Timezone America/Argentina/Salta (UTC-3.0)
Stats Elevation 4,088 ft / 1,246 m (AMSL)
Location -24.855532° -65.483616°
Runways 2
Magnetic Variation 7.443° W

METAR

SASA 141900Z 18006KT 9999 BKN020 SCT030 26/17 Q1016

Decode

TAF

TAF SASA 141700Z 1418/1518 05010KT 7000 TS BKN020 FEW030CB TX33/1518Z TN20/1510Z BECMG 1503/1506 32005KT 9999 BKN020 BECMG 1514/1517 05010KT 9999 SCT020 FEW030TCU

Decode

Destination Runways

ID Width Length Bearing (true) Bearing (mag) Surface Threshold Offset Overrun Length
02 148 ft / 45 m 9,844 ft / 3,001 m 11.23° 18.67° Asphalt 0 ft / 0 m 95 ft / 29 m
06 98 ft / 30 m 7,876 ft / 2,401 m 52.08° 59.52° Asphalt 0 ft / 0 m 0 ft / 0 m
20 148 ft / 45 m 9,844 ft / 3,001 m 191.23° 198.67° Asphalt 0 ft / 0 m 95 ft / 29 m
24 98 ft / 30 m 7,876 ft / 2,401 m 232.07° 239.51° Asphalt 0 ft / 0 m 0 ft / 0 m

Approach Navaids

Runway Type Ident Frequency Range Bearing (true) Bearing (mag) Slope Elevation
02 Localiser SA 110.30 MHz 18 nm / 33 km 11.03° 18.47° - 4,088 ft / 1,246 m (AMSL)
02 Glidescope SA 110.30 MHz 10 nm / 19 km 11.23° 18.67° 3.00° 4,088 ft / 1,246 m (AMSL)

Popular Alternatives